Time;durP1;ratioP1;P1;durP2;ratioP2;P2;SDS_P1;SDS_P2;PMS_P1;PMS_P2;Temp;Humidity;BMP_temperature;BMP_pressure;BME280_temperature;BME280_humidity;BME280_pressure;Samples;Min_cycle;Max_cycle;Signal;HPM_P1;HPM_P2
2023/05/28 00:00:14;;;;;;;6.60;4.57;;;;;;;17.37;43.29;100358.66;4989638;28;20057;-76
2023/05/28 00:02:41;;;;;;;9.60;4.32;;;;;;;17.32;43.40;100361.66;4991493;28;20057;-77
2023/05/28 00:05:08;;;;;;;10.25;4.45;;;;;;;17.27;43.51;100358.50;4989898;28;20677;-77
2023/05/28 00:07:34;;;;;;;11.85;4.35;;;;;;;17.24;43.70;100355.25;4990714;28;20065;-76
2023/05/28 00:10:01;;;;;;;9.88;4.75;;;;;;;17.19;43.80;100347.59;4991422;28;20073;-77
2023/05/28 00:12:28;;;;;;;10.40;4.72;;;;;;;17.14;43.95;100340.00;4989764;28;20085;-76
2023/05/28 00:14:55;;;;;;;10.20;4.93;;;;;;;17.11;44.16;100344.66;4991150;28;20054;-75
2023/05/28 00:17:21;;;;;;;12.43;4.80;;;;;;;17.08;44.49;100347.59;4990919;28;20046;-76
2023/05/28 00:19:48;;;;;;;8.77;4.65;;;;;;;17.03;44.34;100339.91;4992866;28;20050;-76
2023/05/28 00:22:15;;;;;;;10.93;4.75;;;;;;;17.00;44.68;100346.31;4993828;28;20120;-75
2023/05/28 00:24:42;;;;;;;10.25;5.20;;;;;;;16.97;44.53;100341.22;4995148;28;20046;-76
2023/05/28 00:27:09;;;;;;;13.18;4.90;;;;;;;16.93;44.72;100339.75;4994697;28;20058;-77
2023/05/28 00:29:36;;;;;;;10.95;4.57;;;;;;;16.92;44.65;100344.22;4995067;28;20068;-76
2023/05/28 00:32:03;;;;;;;11.65;4.97;;;;;;;16.90;44.49;100334.66;4995087;28;20054;-77
2023/05/28 00:34:29;;;;;;;11.57;5.18;;;;;;;16.88;44.84;100336.56;4994933;28;20053;-76
2023/05/28 00:36:56;;;;;;;9.32;5.00;;;;;;;16.85;44.84;100332.34;4994692;28;20054;-76
2023/05/28 00:39:23;;;;;;;7.82;4.40;;;;;;;16.83;44.70;100334.28;4995007;28;20105;-77
2023/05/28 00:42:00;;;;;;;9.50;5.18;;;;;;;16.79;45.83;100338.13;4994751;28;20416;-77
2023/05/28 00:44:27;;;;;;;9.10;4.40;;;;;;;16.80;45.00;100343.34;4994640;28;20050;-77
2023/05/28 00:46:55;;;;;;;10.35;5.22;;;;;;;16.77;45.32;100340.03;4994366;28;20104;-77
2023/05/28 00:49:23;;;;;;;7.70;4.43;;;;;;;16.74;45.32;100338.47;4994357;28;20053;-76
2023/05/28 00:51:50;;;;;;;10.43;4.90;;;;;;;16.72;45.42;100336.88;4994935;28;20050;-76
2023/05/28 00:54:16;;;;;;;7.97;4.60;;;;;;;16.68;45.61;100333.59;4993394;28;20157;-76
2023/05/28 00:56:46;;;;;;;11.63;5.35;;;;;;;16.64;45.65;100335.63;4993156;28;20050;-76
2023/05/28 00:59:12;;;;;;;9.07;5.35;;;;;;;16.59;45.78;100329.81;4994384;28;20058;-76
2023/05/28 01:01:40;;;;;;;15.52;5.90;;;;;;;16.55;45.99;100328.31;4993835;28;20523;-76
2023/05/28 01:04:06;;;;;;;9.77;5.32;;;;;;;16.51;45.82;100327.72;4994349;28;20046;-76
2023/05/28 01:06:37;;;;;;;11.40;5.82;;;;;;;16.47;46.18;100322.72;4994247;28;20053;-76
2023/05/28 01:09:05;;;;;;;16.05;7.00;;;;;;;16.41;46.29;100318.72;4994649;28;20050;-77
2023/05/28 01:11:33;;;;;;;10.75;5.70;;;;;;;16.35;46.29;100320.00;4992768;28;20113;-75
2023/05/28 01:14:01;;;;;;;16.30;6.40;;;;;;;16.30;46.63;100319.50;4994253;28;20499;-77
2023/05/28 01:16:28;;;;;;;11.20;5.30;;;;;;;16.27;46.92;100325.84;4992807;28;20046;-76
2023/05/28 01:18:56;;;;;;;11.02;5.88;;;;;;;16.23;46.70;100321.72;4994458;28;20745;-76
2023/05/28 01:21:25;;;;;;;9.60;5.82;;;;;;;16.21;46.96;100317.47;4993955;28;20046;-76
2023/05/28 01:23:52;;;;;;;13.07;5.90;;;;;;;16.18;46.95;100315.06;4993702;28;20050;-76
2023/05/28 01:26:18;;;;;;;10.38;5.60;;;;;;;16.14;47.03;100306.44;4992352;28;20108;-76
2023/05/28 01:28:46;;;;;;;14.05;6.03;;;;;;;16.10;46.96;100305.84;4992598;28;20082;-75
2023/05/28 01:31:14;;;;;;;11.25;5.72;;;;;;;16.06;47.35;100320.28;4991897;28;20058;-75
2023/05/28 01:33:41;;;;;;;12.82;6.05;;;;;;;16.04;47.34;100318.72;4992540;28;20519;-77
2023/05/28 01:36:18;;;;;;;13.02;5.70;;;;;;;15.99;48.02;100325.19;4992707;28;20109;-76
2023/05/28 01:38:47;;;;;;;13.00;5.53;;;;;;;15.99;48.03;100322.53;4992644;28;20439;-76
2023/05/28 01:41:15;;;;;;;11.23;5.55;;;;;;;15.97;47.94;100318.28;4993715;28;20093;-76
2023/05/28 01:43:42;;;;;;;15.00;5.53;;;;;;;15.95;47.81;100323.72;4993623;28;20141;-77
2023/05/28 01:46:09;;;;;;;12.73;5.65;;;;;;;15.91;47.99;100314.22;4993697;28;20086;-76
2023/05/28 01:48:37;;;;;;;14.30;5.85;;;;;;;15.90;47.93;100318.69;4993457;28;20614;-76
2023/05/28 01:51:05;;;;;;;12.63;5.18;;;;;;;15.88;48.27;100320.59;4992456;28;20101;-77
2023/05/28 01:53:32;;;;;;;10.80;5.57;;;;;;;15.86;48.50;100319.03;4993184;28;20086;-77
2023/05/28 01:55:58;;;;;;;12.15;6.32;;;;;;;15.84;48.48;100326.22;4993272;28;20499;-76
2023/05/28 01:58:25;;;;;;;12.88;6.03;;;;;;;15.82;48.61;100328.16;4993328;28;20086;-75
2023/05/28 02:01:11;;;;;;;16.02;6.50;;;;;;;15.74;49.97;100310.94;4993532;28;20064;-76
2023/05/28 02:03:38;;;;;;;11.95;5.50;;;;;;;15.75;48.67;100320.59;4993100;28;20117;-77
2023/05/28 02:06:04;;;;;;;13.00;6.20;;;;;;;15.73;48.69;100327.84;4993062;28;20090;-77
2023/05/28 02:08:31;;;;;;;8.88;5.13;;;;;;;15.72;48.62;100330.59;4993004;28;20054;-76
2023/05/28 02:10:58;;;;;;;10.70;5.82;;;;;;;15.70;48.47;100328.03;4993168;28;20630;-76
2023/05/28 02:13:27;;;;;;;11.30;5.22;;;;;;;15.68;48.39;100331.75;4992974;28;20158;-78
2023/05/28 02:15:55;;;;;;;9.27;5.40;;;;;;;15.66;48.34;100328.38;4991742;28;20061;-76
2023/05/28 02:18:22;;;;;;;10.55;6.13;;;;;;;15.61;48.61;100323.38;4993225;28;20057;-75
2023/05/28 02:20:49;;;;;;;16.52;6.38;;;;;;;15.57;48.90;100327.19;4992994;28;20051;-77
2023/05/28 02:23:15;;;;;;;12.63;6.00;;;;;;;15.53;48.93;100323.06;4992863;28;20057;-75
2023/05/28 02:25:43;;;;;;;11.35;6.50;;;;;;;15.48;48.94;100321.56;4992870;28;20042;-76
2023/05/28 02:28:10;;;;;;;12.75;5.47;;;;;;;15.45;48.80;100313.84;4992758;28;20113;-76
2023/05/28 02:30:37;;;;;;;15.20;6.25;;;;;;;15.41;49.00;100309.69;4991725;28;20073;-75
2023/05/28 02:33:04;;;;;;;14.85;6.32;;;;;;;15.40;49.19;100315.94;4992736;28;20042;-76
2023/05/28 02:35:31;;;;;;;13.05;6.45;;;;;;;15.38;49.40;100309.91;4992335;28;20046;-76
2023/05/28 02:37:58;;;;;;;11.30;6.78;;;;;;;15.34;49.53;100311.94;4991257;28;20558;-76
2023/05/28 02:40:24;;;;;;;14.57;7.13;;;;;;;15.33;49.76;100312.03;4991629;28;20043;-76
2023/05/28 02:42:51;;;;;;;14.35;6.63;;;;;;;15.31;49.70;100311.25;4992494;28;20078;-76
2023/05/28 02:45:18;;;;;;;13.95;7.40;;;;;;;15.28;49.65;100311.50;4992001;28;20286;-75
2023/05/28 02:47:44;;;;;;;17.17;7.15;;;;;;;15.27;49.93;100309.78;5022065;22;20049;-80
2023/05/28 02:50:11;;;;;;;11.70;6.35;;;;;;;15.26;49.92;100308.09;5051491;28;20048;-80
2023/05/28 02:52:37;;;;;;;13.98;7.10;;;;;;;15.23;50.26;100302.06;5051540;28;20457;-80
2023/05/28 02:55:05;;;;;;;19.00;8.27;;;;;;;15.22;50.17;100302.16;5051356;28;20128;-80
2023/05/28 02:57:31;;;;;;;11.70;6.47;;;;;;;15.20;50.38;100304.91;5051430;28;20501;-80
2023/05/28 02:59:58;;;;;;;16.30;7.95;;;;;;;15.16;50.40;100300.75;5051726;28;20053;-80
2023/05/28 03:02:25;;;;;;;15.55;7.90;;;;;;;15.12;50.55;100307.22;5051530;28;20195;-80
2023/05/28 03:04:53;;;;;;;16.58;7.15;;;;;;;15.07;50.64;100304.03;5050843;28;20128;-80
2023/05/28 03:07:20;;;;;;;21.00;8.02;;;;;;;15.00;50.88;100308.03;5049535;28;20049;-80
2023/05/28 03:09:47;;;;;;;18.95;8.52;;;;;;;14.95;51.08;100313.66;5051555;28;20059;-80
2023/05/28 03:12:13;;;;;;;18.00;8.88;;;;;;;14.90;51.09;100313.09;5051280;28;20494;-80
2023/05/28 03:14:40;;;;;;;13.70;7.22;;;;;;;14.84;51.48;100320.50;5051103;28;20395;-80
2023/05/28 03:17:06;;;;;;;15.93;8.15;;;;;;;14.79;51.65;100322.63;5051246;28;20106;-80
2023/05/28 03:19:33;;;;;;;15.35;6.20;;;;;;;14.78;51.48;100322.72;5051216;28;20085;-80
2023/05/28 03:22:00;;;;;;;17.23;7.95;;;;;;;14.77;51.63;100316.56;5050893;28;20502;-80
2023/05/28 03:24:26;;;;;;;20.50;8.77;;;;;;;14.78;51.90;100322.72;5051280;28;20048;-79
2023/05/28 03:26:53;;;;;;;18.17;7.68;;;;;;;14.79;52.05;100327.06;5050638;28;20052;-80
2023/05/28 03:29:19;;;;;;;17.77;7.72;;;;;;;14.80;52.16;100326.13;5051179;28;20053;-80
2023/05/28 03:31:47;;;;;;;18.52;8.00;;;;;;;14.81;52.42;100327.81;5051001;28;20045;-80
2023/05/28 03:34:14;;;;;;;20.00;8.15;;;;;;;14.82;52.56;100340.13;5051172;28;20445;-80
2023/05/28 03:36:41;;;;;;;16.98;7.68;;;;;;;14.84;52.33;100332.94;5050321;28;20102;-80
2023/05/28 03:39:09;;;;;;;21.83;8.05;;;;;;;14.83;52.73;100325.91;5050998;28;20056;-80
2023/05/28 03:41:38;;;;;;;21.95;8.25;;;;;;;14.85;53.77;100326.66;5049750;28;20052;-80
2023/05/28 03:44:05;;;;;;;20.25;8.35;;;;;;;14.87;52.49;100322.09;5050664;28;20505;-80
2023/05/28 03:46:32;;;;;;;20.02;8.52;;;;;;;14.87;52.64;100315.97;5050554;28;20048;-80
2023/05/28 03:48:59;;;;;;;15.70;8.20;;;;;;;14.85;52.55;100303.66;5051132;28;20108;-81
2023/05/28 03:51:26;;;;;;;19.38;8.90;;;;;;;14.82;52.79;100308.31;5050939;28;20056;-80
2023/05/28 03:53:54;;;;;;;18.13;8.13;;;;;;;14.79;52.74;100313.81;5048856;28;20063;-80
2023/05/28 03:56:22;;;;;;;16.58;8.75;;;;;;;14.75;53.02;100317.56;5050452;28;20049;-80
2023/05/28 03:58:49;;;;;;;19.33;9.18;;;;;;;14.72;53.16;100318.63;5030721;28;20410;-80
2023/05/28 04:01:16;;;;;;;15.05;8.32;;;;;;;14.71;53.21;100322.25;5030665;28;20105;-80
2023/05/28 04:03:42;;;;;;;17.52;8.38;;;;;;;14.68;53.54;100320.63;5030487;28;20461;-80
2023/05/28 04:06:10;;;;;;;21.55;8.40;;;;;;;14.67;53.62;100326.91;5041677;28;20067;-80
2023/05/28 04:08:36;;;;;;;21.10;9.10;;;;;;;14.65;53.45;100320.84;5046408;28;20052;-80
2023/05/28 04:11:03;;;;;;;14.82;8.32;;;;;;;14.63;53.58;100319.25;5049239;28;20048;-80
2023/05/28 04:13:30;;;;;;;17.90;8.13;;;;;;;14.61;53.98;100316.69;5050601;28;20064;-80
2023/05/28 04:15:57;;;;;;;15.40;7.80;;;;;;;14.61;54.24;100321.97;5048692;28;20052;-80
2023/05/28 04:18:24;;;;;;;20.52;8.45;;;;;;;14.61;53.98;100321.97;5050492;28;20064;-80
2023/05/28 04:20:51;;;;;;;14.85;8.63;;;;;;;14.62;54.41;100325.50;5050510;28;20513;-80
2023/05/28 04:23:17;;;;;;;17.25;8.10;;;;;;;14.64;54.39;100332.38;5050409;28;20123;-80
2023/05/28 04:25:44;;;;;;;16.63;8.10;;;;;;;14.68;54.64;100317.13;5049854;28;20566;-80
2023/05/28 04:28:11;;;;;;;17.17;8.85;;;;;;;14.72;54.50;100319.50;5049054;28;20054;-80
2023/05/28 04:30:38;;;;;;;22.52;8.93;;;;;;;14.78;54.74;100317.41;5050315;28;20088;-80
2023/05/28 04:33:06;;;;;;;17.00;8.18;;;;;;;14.83;54.56;100317.97;5050264;28;20460;-80
2023/05/28 04:35:33;;;;;;;19.77;9.20;;;;;;;14.87;54.47;100313.31;5050286;28;20095;-80
2023/05/28 04:37:59;;;;;;;20.15;9.50;;;;;;;14.89;54.73;100325.53;5050069;28;20068;-80
2023/05/28 04:40:26;;;;;;;18.48;9.43;;;;;;;14.92;54.73;100329.75;5049120;28;20057;-80
2023/05/28 04:42:53;;;;;;;20.42;9.00;;;;;;;14.93;54.78;100328.81;5050205;28;20402;-80
2023/05/28 04:45:20;;;;;;;19.13;9.77;;;;;;;14.94;55.04;100328.72;5048742;28;20056;-80
2023/05/28 04:47:49;;;;;;;15.95;8.80;;;;;;;14.94;55.48;100328.72;5049947;28;20081;-80
2023/05/28 04:50:15;;;;;;;17.35;9.10;;;;;;;14.99;55.14;100325.72;5050289;28;20045;-80
2023/05/28 04:52:42;;;;;;;19.23;9.20;;;;;;;15.05;55.31;100324.47;5048903;28;20085;-81
2023/05/28 04:55:09;;;;;;;20.08;8.85;;;;;;;15.11;55.51;100321.44;5050059;28;20668;-80
2023/05/28 04:57:36;;;;;;;11.93;7.93;;;;;;;15.16;55.42;100326.41;5049612;28;20071;-80
2023/05/28 05:00:03;;;;;;;15.35;8.07;;;;;;;15.23;55.50;100325.06;5050143;28;20486;-80
2023/05/28 05:02:30;;;;;;;15.57;9.07;;;;;;;15.29;55.46;100321.97;5048999;28;20444;-80
2023/05/28 05:04:56;;;;;;;22.25;10.02;;;;;;;15.33;55.67;100325.28;5049863;28;20406;-80
2023/05/28 05:07:23;;;;;;;21.58;9.18;;;;;;;15.38;55.77;100323.16;5053585;28;20151;-80
2023/05/28 05:09:50;;;;;;;19.33;9.27;;;;;;;15.44;55.66;100324.56;5053914;28;20057;-80
2023/05/28 05:12:17;;;;;;;21.98;10.07;;;;;;;15.48;55.65;100324.22;5053389;28;20056;-80
2023/05/28 05:14:43;;;;;;;22.65;9.85;;;;;;;15.53;55.61;100329.22;5053504;28;20489;-80
2023/05/28 05:17:10;;;;;;;17.50;9.65;;;;;;;15.57;55.37;100332.50;5053865;28;20624;-79
2023/05/28 05:19:37;;;;;;;21.63;9.15;;;;;;;15.61;55.81;100334.84;5053576;28;20045;-79
2023/05/28 05:22:04;;;;;;;15.85;7.82;;;;;;;15.66;55.63;100331.03;5053185;28;20509;-80
2023/05/28 05:24:31;;;;;;;14.45;7.85;;;;;;;15.71;55.68;100334.22;5053307;28;20053;-80
2023/05/28 05:26:58;;;;;;;15.95;8.38;;;;;;;15.77;55.64;100331.13;5053260;28;20053;-80
2023/05/28 05:29:25;;;;;;;20.75;9.77;;;;;;;15.82;55.56;100331.66;5052218;28;20119;-80
2023/05/28 05:31:51;;;;;;;20.30;9.57;;;;;;;15.89;55.66;100332.91;5053169;28;20493;-79
2023/05/28 05:34:18;;;;;;;17.23;9.15;;;;;;;15.95;55.59;100320.19;5053010;28;20452;-80
2023/05/28 05:36:45;;;;;;;19.52;9.20;;;;;;;16.01;55.75;100323.25;5052600;28;20081;-80
2023/05/28 05:39:12;;;;;;;19.15;9.18;;;;;;;16.07;55.75;100329.94;5053301;28;20060;-80
2023/05/28 05:41:39;;;;;;;21.35;9.10;;;;;;;16.15;55.89;100334.72;5052637;28;20049;-79
2023/05/28 05:44:06;;;;;;;16.00;8.52;;;;;;;16.21;55.67;100330.75;5053211;28;20048;-79
2023/05/28 05:46:32;;;;;;;17.80;7.60;;;;;;;16.27;55.61;100336.47;5052790;28;20098;-79
2023/05/28 05:48:59;;;;;;;16.70;9.07;;;;;;;16.34;55.86;100341.38;5053023;28;20122;-79
2023/05/28 05:51:26;;;;;;;17.52;10.00;;;;;;;16.41;55.54;100337.31;5052884;28;20391;-79
2023/05/28 05:53:52;;;;;;;22.10;9.40;;;;;;;16.47;55.62;100342.19;5052406;28;20044;-78
2023/05/28 05:56:19;;;;;;;13.23;8.05;;;;;;;16.54;55.65;100338.13;5052730;28;20098;-78
2023/05/28 05:58:46;;;;;;;15.60;8.07;;;;;;;16.59;55.48;100345.75;5052558;28;20087;-79
2023/05/28 06:01:16;;;;;;;19.60;9.13;;;;;;;16.66;55.91;100338.16;5052208;28;20103;-78
2023/05/28 06:03:48;;;;;;;19.27;8.07;;;;;;;16.73;55.32;100336.75;5051968;28;20056;-78
2023/05/28 06:06:15;;;;;;;20.25;8.77;;;;;;;16.81;55.11;100338.84;5051416;28;20518;-78
2023/05/28 06:08:42;;;;;;;16.30;8.45;;;;;;;16.88;55.12;100344.56;5034325;28;20061;-78
2023/05/28 06:11:09;;;;;;;15.40;8.90;;;;;;;16.94;55.04;100333.47;5052093;28;20048;-78
2023/05/28 06:13:37;;;;;;;14.30;8.05;;;;;;;17.01;54.85;100342.66;5051825;28;20049;-78
2023/05/28 06:16:04;;;;;;;14.55;7.60;;;;;;;17.10;55.09;100341.19;5051228;28;20148;-77
2023/05/28 06:18:30;;;;;;;15.82;8.57;;;;;;;17.18;54.97;100338.78;5051618;28;20486;-77
2023/05/28 06:20:57;;;;;;;18.52;8.68;;;;;;;17.27;55.16;100333.75;5052112;28;20056;-78
2023/05/28 06:23:24;;;;;;;14.82;8.30;;;;;;;17.35;55.11;100336.66;5052179;28;20402;-77
2023/05/28 06:25:51;;;;;;;14.18;7.47;;;;;;;17.44;54.91;100345.75;5052396;28;20111;-78
2023/05/28 06:28:18;;;;;;;16.58;8.43;;;;;;;17.53;54.71;100339.69;5052632;28;20057;-78
2023/05/28 06:30:44;;;;;;;14.57;7.85;;;;;;;17.63;54.58;100349.63;5050918;28;20049;-77
2023/05/28 06:33:11;;;;;;;14.38;7.90;;;;;;;17.71;54.67;100348.09;5051382;28;20080;-77
2023/05/28 06:35:38;;;;;;;13.50;7.72;;;;;;;17.82;54.13;100357.91;5050732;28;20052;-77
2023/05/28 06:38:05;;;;;;;14.32;7.18;;;;;;;17.93;54.12;100357.06;5050029;28;20102;-77
2023/05/28 06:40:32;;;;;;;16.73;8.38;;;;;;;18.03;54.29;100349.19;5050951;28;20049;-78
2023/05/28 06:43:00;;;;;;;14.88;7.50;;;;;;;18.15;53.76;100343.88;5049835;28;20090;-77
2023/05/28 06:45:27;;;;;;;20.13;8.25;;;;;;;18.25;53.75;100339.53;5050389;28;20136;-77
2023/05/28 06:47:54;;;;;;;13.43;7.28;;;;;;;18.34;53.39;100336.09;5051361;28;20056;-77
2023/05/28 06:50:20;;;;;;;15.05;7.65;;;;;;;18.44;53.33;100341.53;5051608;28;20084;-77
2023/05/28 06:52:47;;;;;;;15.85;6.95;;;;;;;18.53;53.16;100333.75;5051626;28;20044;-77
2023/05/28 06:55:14;;;;;;;16.10;7.45;;;;;;;18.61;53.25;100337.50;5050162;28;20045;-77
2023/05/28 06:57:40;;;;;;;18.23;7.72;;;;;;;18.72;53.08;100341.09;5051352;28;20460;-77
2023/05/28 07:00:10;;;;;;;16.17;7.45;;;;;;;18.82;52.79;100334.03;5051675;28;20075;-78
2023/05/28 07:02:37;;;;;;;16.92;7.60;;;;;;;18.93;52.59;100333.16;5051036;28;20048;-78
2023/05/28 07:05:04;;;;;;;12.50;6.25;;;;;;;19.02;52.17;100342.19;5049961;28;20569;-77
2023/05/28 07:07:32;;;;;;;10.70;6.32;;;;;;;19.13;51.95;100338.66;5051774;28;20049;-78
2023/05/28 07:09:59;;;;;;;16.40;7.10;;;;;;;19.24;52.21;100346.59;5051318;28;20068;-77
2023/05/28 07:12:25;;;;;;;13.05;6.38;;;;;;;19.32;52.50;100335.28;5051576;28;20049;-79
2023/05/28 07:14:52;;;;;;;16.65;7.85;;;;;;;19.42;52.34;100347.81;5051026;28;20057;-78
2023/05/28 07:17:20;;;;;;;13.30;6.53;;;;;;;19.50;52.10;100356.03;5051098;28;20052;-78
2023/05/28 07:19:50;;;;;;;12.38;6.32;;;;;;;19.57;51.75;100351.88;5051471;28;20063;-80
2023/05/28 07:22:17;;;;;;;14.00;6.70;;;;;;;19.65;51.55;100352.06;5051107;28;20048;-77
2023/05/28 07:24:43;;;;;;;12.57;6.70;;;;;;;19.72;51.40;100352.38;5050860;28;20514;-78
2023/05/28 07:27:10;;;;;;;16.98;6.43;;;;;;;19.80;50.93;100357.03;5049653;28;20087;-78
2023/05/28 07:29:37;;;;;;;15.55;6.35;;;;;;;19.85;50.81;100360.16;5050257;28;20049;-80
2023/05/28 07:32:03;;;;;;;13.25;6.43;;;;;;;19.90;50.69;100363.28;5051368;28;20057;-79
2023/05/28 07:34:31;;;;;;;15.32;6.70;;;;;;;19.96;50.70;100363.75;5050883;28;20080;-79
2023/05/28 07:36:58;;;;;;;10.02;6.50;;;;;;;20.02;50.45;100365.88;5051027;28;20052;-79
2023/05/28 07:39:24;;;;;;;12.48;7.05;;;;;;;20.07;50.05;100362.84;5050838;28;20106;-79
2023/05/28 07:41:51;;;;;;;18.25;7.00;;;;;;;20.11;50.26;100365.09;5048048;28;20052;-79
2023/05/28 07:44:18;;;;;;;13.48;7.47;;;;;;;20.18;50.12;100363.56;5048934;28;20059;-78
2023/05/28 07:46:44;;;;;;;13.98;7.70;;;;;;;20.26;50.83;100372.75;5048782;28;20060;-79
2023/05/28 07:49:11;;;;;;;16.38;7.47;;;;;;;20.34;50.71;100366.72;5049616;28;20136;-80
2023/05/28 07:51:38;;;;;;;16.77;7.35;;;;;;;20.46;50.83;100373.66;5049321;28;20057;-79
2023/05/28 07:54:05;;;;;;;17.73;8.48;;;;;;;20.56;51.10;100371.00;5048061;28;20056;-79
2023/05/28 07:56:32;;;;;;;14.85;7.38;;;;;;;20.69;50.67;100376.06;5050117;28;20053;-83
2023/05/28 07:58:59;;;;;;;13.48;7.05;;;;;;;20.81;50.55;100374.09;5049867;28;20600;-82
2023/05/28 08:01:26;;;;;;;13.70;7.20;;;;;;;20.94;50.22;100382.75;5051115;28;20152;-83
2023/05/28 08:03:54;;;;;;;19.60;7.65;;;;;;;21.06;50.19;100372.75;5050534;28;20045;-82
2023/05/28 08:06:21;;;;;;;10.98;6.68;;;;;;;21.19;50.04;100377.81;5050081;28;20049;-81
2023/05/28 08:08:48;;;;;;;13.15;7.18;;;;;;;21.32;49.73;100371.31;5050650;28;20417;-82
2023/05/28 08:11:15;;;;;;;12.57;6.50;;;;;;;21.44;49.85;100377.34;5050453;28;20551;-83
2023/05/28 08:13:41;;;;;;;11.95;6.28;;;;;;;21.58;49.55;100381.44;5050015;28;20049;-82
2023/05/28 08:16:12;;;;;;;9.70;5.78;;;;;;;21.67;49.27;100377.88;5050224;28;20049;-82
2023/05/28 08:18:39;;;;;;;12.95;6.38;;;;;;;21.80;49.12;100380.28;5049853;28;20049;-82
2023/05/28 08:21:07;;;;;;;15.90;6.60;;;;;;;21.89;48.81;100381.22;5050061;28;20597;-81
2023/05/28 08:23:34;;;;;;;10.85;6.60;;;;;;;21.97;48.76;100381.34;5050283;28;20048;-81
2023/05/28 08:26:02;;;;;;;12.43;6.88;;;;;;;22.04;48.40;100378.91;5050108;28;20045;-80
2023/05/28 08:28:30;;;;;;;16.02;6.75;;;;;;;22.10;48.16;100381.00;5050368;28;20103;-80
2023/05/28 08:30:56;;;;;;;11.48;6.10;;;;;;;22.16;47.63;100379.56;5050420;28;20059;-81
2023/05/28 08:33:23;;;;;;;14.63;6.30;;;;;;;22.20;47.37;100380.13;5050303;28;20406;-80
2023/05/28 08:35:50;;;;;;;12.25;5.32;;;;;;;22.24;47.46;100379.66;5050121;28;20057;-78
2023/05/28 08:38:18;;;;;;;10.90;5.20;;;;;;;22.30;47.36;100372.00;5050156;28;20056;-80
2023/05/28 08:40:53;;;;;;;12.07;5.43;;;;;;;22.35;46.96;100372.44;5051592;28;20057;-80
2023/05/28 08:43:20;;;;;;;13.40;5.80;;;;;;;22.44;46.76;100365.31;5054680;28;20049;-80
2023/05/28 08:45:47;;;;;;;10.88;5.15;;;;;;;22.50;46.67;100364.72;5052630;28;20576;-79
2023/05/28 08:48:14;;;;;;;11.57;4.70;;;;;;;22.57;46.27;100365.00;5093297;22;20049;-84
2023/05/28 08:50:45;;;;;;;7.50;3.95;;;;;;;22.63;45.37;100356.31;5051644;28;20045;-83
2023/05/28 08:53:16;;;;;;;9.05;4.22;;;;;;;22.66;45.64;100364.09;5052969;28;20045;-83
2023/05/28 08:55:45;;;;;;;8.15;4.10;;;;;;;22.71;45.52;100359.09;5052993;28;20128;-83
2023/05/28 08:58:12;;;;;;;11.70;4.65;;;;;;;22.78;45.94;100362.88;5039038;28;20053;-83
2023/05/28 09:00:40;;;;;;;13.45;4.70;;;;;;;22.87;45.53;100369.13;5032660;28;20055;-83
2023/05/28 09:03:07;;;;;;;9.52;4.82;;;;;;;22.97;45.48;100362.84;5033139;28;20103;-83
2023/05/28 09:05:36;;;;;;;11.25;5.30;;;;;;;23.09;45.55;100363.44;5032523;28;20510;-83
2023/05/28 09:08:07;;;;;;;11.57;5.28;;;;;;;23.21;45.45;100361.38;5032410;28;20519;-83
2023/05/28 09:10:35;;;;;;;9.48;4.60;;;;;;;23.35;44.48;100357.31;5032958;28;20054;-83
2023/05/28 09:13:02;;;;;;;12.23;5.35;;;;;;;23.46;44.37;100351.69;5031030;28;20352;-83
2023/05/28 09:15:29;;;;;;;10.45;4.55;;;;;;;23.53;44.54;100355.44;5032434;28;20095;-83
2023/05/28 09:17:58;;;;;;;10.88;4.85;;;;;;;23.61;44.27;100353.78;5031131;28;20049;-83
2023/05/28 09:23:56;;;;;;;9.13;4.07;;;;;;;23.76;44.69;100349.50;5012801;28;20049;-85
2023/05/28 09:29:38;;;;;;;9.32;3.80;;;;;;;23.91;43.99;100354.28;4992408;28;20054;-79
2023/05/28 09:32:05;;;;;;;10.80;4.03;;;;;;;23.95;43.80;100350.28;4993871;28;20046;-80
2023/05/28 09:34:33;;;;;;;9.85;4.20;;;;;;;23.99;43.27;100350.81;4993721;28;20050;-80
2023/05/28 09:37:04;;;;;;;11.65;4.03;;;;;;;23.96;43.03;100349.28;4993490;28;20061;-79
2023/05/28 09:39:31;;;;;;;14.00;4.45;;;;;;;24.00;43.28;100350.63;4976764;28;20050;-79
2023/05/28 09:42:12;;;;;;;10.38;4.30;;;;;;;24.02;42.78;100354.00;4993412;28;20650;-79
2023/05/28 09:44:40;;;;;;;9.80;4.47;;;;;;;24.08;43.42;100355.22;4992897;28;20487;-78
2023/05/28 09:47:14;;;;;;;8.07;4.18;;;;;;;24.12;43.21;100350.38;4993211;28;20054;-79
2023/05/28 09:49:49;;;;;;;10.63;4.93;;;;;;;24.18;42.83;100353.25;4992964;28;20054;-79
2023/05/28 09:52:20;;;;;;;11.63;5.13;;;;;;;24.26;43.30;100349.75;4992340;28;20146;-79
2023/05/28 09:54:51;;;;;;;10.40;4.30;;;;;;;24.31;42.96;100342.06;4992598;28;20058;-79
2023/05/28 09:57:25;;;;;;;8.43;4.10;;;;;;;24.38;42.34;100339.53;4993471;28;20112;-79
2023/05/28 09:59:55;;;;;;;14.40;4.72;;;;;;;24.46;42.47;100334.19;4993357;28;20113;-80
2023/05/28 10:02:32;;;;;;;10.18;4.10;;;;;;;24.54;43.02;100341.44;4993396;28;20054;-79
2023/05/28 10:05:02;;;;;;;11.32;4.30;;;;;;;24.64;42.76;100340.44;4993229;28;20488;-80
2023/05/28 10:07:30;;;;;;;9.00;4.30;;;;;;;24.73;41.95;100332.19;4993345;28;20042;-79
2023/05/28 10:10:00;;;;;;;11.13;4.53;;;;;;;24.81;41.81;100339.44;4993373;28;20047;-79
2023/05/28 10:12:30;;;;;;;7.75;4.05;;;;;;;24.87;41.67;100342.50;4975598;28;20050;-80
2023/05/28 10:14:57;;;;;;;9.98;4.32;;;;;;;24.92;41.87;100337.44;4991581;28;20410;-80
2023/05/28 10:17:24;;;;;;;8.80;4.43;;;;;;;24.96;41.74;100339.66;4992705;28;20476;-79
2023/05/28 10:19:51;;;;;;;10.35;4.97;;;;;;;25.02;42.10;100338.13;4993154;28;20140;-80
2023/05/28 10:22:18;;;;;;;7.75;4.38;;;;;;;25.08;42.19;100336.63;4992759;28;20050;-79
2023/05/28 10:24:46;;;;;;;11.98;4.70;;;;;;;25.15;41.76;100336.78;4992630;28;20081;-79
2023/05/28 10:27:15;;;;;;;10.32;5.13;;;;;;;25.22;42.18;100340.47;4992545;28;20065;-79
2023/05/28 10:29:43;;;;;;;10.18;4.45;;;;;;;25.29;42.19;100338.78;4993298;28;20047;-80
2023/05/28 10:32:14;;;;;;;9.70;4.82;;;;;;;25.37;41.70;100348.69;4992837;28;20089;-80
2023/05/28 10:34:41;;;;;;;9.10;4.65;;;;;;;25.46;42.15;100350.38;4992606;28;20085;-79
2023/05/28 10:37:10;;;;;;;10.50;5.00;;;;;;;25.56;42.05;100352.91;4991321;28;20104;-79
2023/05/28 10:39:38;;;;;;;12.38;5.32;;;;;;;25.69;42.60;100344.31;5000057;28;20058;-79
2023/05/28 10:42:06;;;;;;;8.80;4.80;;;;;;;25.87;42.09;100343.25;5012440;28;20042;-79
2023/05/28 10:44:59;;;;;;;11.35;4.50;;;;;;;26.07;41.97;100338.25;4996437;28;20543;-79
2023/05/28 10:47:35;;;;;;;8.40;4.50;;;;;;;26.43;41.36;100341.47;4992583;28;20053;-79
2023/05/28 10:50:11;;;;;;;7.75;3.65;;;;;;;26.84;40.92;100341.22;4992800;28;20054;-79
2023/05/28 10:53:06;;;;;;;8.27;4.10;;;;;;;27.38;41.26;100346.66;4976417;28;20543;-79
2023/05/28 10:55:54;;;;;;;10.13;4.47;;;;;;;27.95;41.18;100337.09;4973089;28;20049;-80
2023/05/28 10:58:36;;;;;;;9.73;4.00;;;;;;;28.51;40.26;100342.16;4972754;28;20054;-79
2023/05/28 11:01:20;;;;;;;7.30;3.50;;;;;;;28.99;38.84;100337.03;4973058;28;20102;-80
2023/05/28 11:03:53;;;;;;;5.82;3.83;;;;;;;29.45;37.72;100339.44;4975810;28;20088;-80
2023/05/28 11:06:20;;;;;;;;;;;;;;;29.77;39.73;100338.00;4992334;28;20511;-80
2023/05/28 11:08:48;;;;;;;9.80;3.80;;;;;;;30.21;36.70;100342.38;4991774;28;19968;-80
2023/05/28 11:11:18;;;;;;;10.20;4.47;;;;;;;30.50;37.40;100338.47;4991129;28;20057;-80
2023/05/28 11:13:47;;;;;;;7.22;3.70;;;;;;;30.82;36.76;100332.50;4992293;28;20057;-79
2023/05/28 11:16:15;;;;;;;7.28;3.50;;;;;;;31.13;36.39;100336.47;4991862;28;20062;-80
2023/05/28 11:19:05;;;;;;;7.70;3.70;;;;;;;31.45;35.96;100335.84;4991864;28;20128;-79
2023/05/28 11:21:32;;;;;;;8.40;4.07;;;;;;;31.80;35.37;100335.53;4992118;28;20050;-81
2023/05/28 11:24:05;;;;;;;10.75;4.30;;;;;;;32.04;34.80;100327.72;4992047;28;20050;-81
2023/05/28 11:26:32;;;;;;;5.82;3.92;;;;;;;32.26;33.37;100324.69;4990259;28;20046;-80
2023/05/28 11:29:00;;;;;;;6.22;3.22;;;;;;;32.46;33.49;100331.91;4991702;28;20503;-81